sensor_id;sensor_type;location;lat;lon;timestamp;temperature;humidity
17399;DHT22;8817;48.170;8.592;2023-01-08T00:01:04;10.00;54.50
17399;DHT22;8817;48.170;8.592;2023-01-08T00:03:31;10.00;54.50
17399;DHT22;8817;48.170;8.592;2023-01-08T00:06:00;10.00;54.50
17399;DHT22;8817;48.170;8.592;2023-01-08T00:08:28;10.00;54.60
17399;DHT22;8817;48.170;8.592;2023-01-08T00:10:55;10.00;54.60
17399;DHT22;8817;48.170;8.592;2023-01-08T00:13:23;10.00;54.60
17399;DHT22;8817;48.170;8.592;2023-01-08T00:15:51;9.90;55.20
17399;DHT22;8817;48.170;8.592;2023-01-08T00:18:18;9.90;54.60
17399;DHT22;8817;48.170;8.592;2023-01-08T00:20:46;10.00;54.70
17399;DHT22;8817;48.170;8.592;2023-01-08T00:23:15;9.90;54.70
17399;DHT22;8817;48.170;8.592;2023-01-08T00:25:43;9.90;54.70
17399;DHT22;8817;48.170;8.592;2023-01-08T00:28:10;9.90;54.70
17399;DHT22;8817;48.170;8.592;2023-01-08T00:30:38;9.90;54.70
17399;DHT22;8817;48.170;8.592;2023-01-08T00:33:05;9.90;54.70
17399;DHT22;8817;48.170;8.592;2023-01-08T00:35:33;10.00;54.70
17399;DHT22;8817;48.170;8.592;2023-01-08T00:38:00;9.90;54.70
17399;DHT22;8817;48.170;8.592;2023-01-08T00:40:27;9.90;54.70
17399;DHT22;8817;48.170;8.592;2023-01-08T00:42:54;9.90;54.70
17399;DHT22;8817;48.170;8.592;2023-01-08T00:45:20;9.90;54.70
17399;DHT22;8817;48.170;8.592;2023-01-08T00:47:49;9.90;54.70
17399;DHT22;8817;48.170;8.592;2023-01-08T00:50:16;9.90;54.70
17399;DHT22;8817;48.170;8.592;2023-01-08T00:52:42;9.90;54.70
17399;DHT22;8817;48.170;8.592;2023-01-08T00:55:09;9.90;54.80
17399;DHT22;8817;48.170;8.592;2023-01-08T00:57:38;9.90;54.80
17399;DHT22;8817;48.170;8.592;2023-01-08T01:00:07;9.90;54.80
17399;DHT22;8817;48.170;8.592;2023-01-08T01:02:36;9.90;54.80
17399;DHT22;8817;48.170;8.592;2023-01-08T01:05:06;9.90;54.80
17399;DHT22;8817;48.170;8.592;2023-01-08T01:07:33;10.00;54.80
17399;DHT22;8817;48.170;8.592;2023-01-08T01:10:00;10.00;54.80
17399;DHT22;8817;48.170;8.592;2023-01-08T01:12:27;10.00;54.80
17399;DHT22;8817;48.170;8.592;2023-01-08T01:14:54;10.00;54.80
17399;DHT22;8817;48.170;8.592;2023-01-08T01:17:21;10.00;54.80
17399;DHT22;8817;48.170;8.592;2023-01-08T01:19:48;10.00;54.80
17399;DHT22;8817;48.170;8.592;2023-01-08T01:22:16;10.00;54.80
17399;DHT22;8817;48.170;8.592;2023-01-08T01:24:43;10.00;54.80
17399;DHT22;8817;48.170;8.592;2023-01-08T01:27:10;10.00;54.80
17399;DHT22;8817;48.170;8.592;2023-01-08T01:29:37;10.00;54.80
17399;DHT22;8817;48.170;8.592;2023-01-08T01:32:04;10.00;55.30
17399;DHT22;8817;48.170;8.592;2023-01-08T01:34:31;10.00;54.80
17399;DHT22;8817;48.170;8.592;2023-01-08T01:36:58;10.00;54.70
17399;DHT22;8817;48.170;8.592;2023-01-08T01:39:26;10.00;54.70
17399;DHT22;8817;48.170;8.592;2023-01-08T01:41:53;10.00;54.80
17399;DHT22;8817;48.170;8.592;2023-01-08T01:44:35;10.00;54.80
17399;DHT22;8817;48.170;8.592;2023-01-08T01:47:06;10.00;54.80
17399;DHT22;8817;48.170;8.592;2023-01-08T01:49:35;10.00;54.80
17399;DHT22;8817;48.170;8.592;2023-01-08T01:52:04;10.00;54.80
17399;DHT22;8817;48.170;8.592;2023-01-08T01:54:35;10.00;54.80
17399;DHT22;8817;48.170;8.592;2023-01-08T01:57:02;10.00;54.80
17399;DHT22;8817;48.170;8.592;2023-01-08T01:59:30;10.00;54.80
17399;DHT22;8817;48.170;8.592;2023-01-08T02:01:57;10.00;54.80
17399;DHT22;8817;48.170;8.592;2023-01-08T02:04:24;10.00;54.80
17399;DHT22;8817;48.170;8.592;2023-01-08T02:06:57;10.00;54.80
17399;DHT22;8817;48.170;8.592;2023-01-08T02:09:39;10.00;54.80
17399;DHT22;8817;48.170;8.592;2023-01-08T02:12:10;10.00;54.90
17399;DHT22;8817;48.170;8.592;2023-01-08T02:14:56;10.00;54.90
17399;DHT22;8817;48.170;8.592;2023-01-08T02:17:34;10.00;54.80
17399;DHT22;8817;48.170;8.592;2023-01-08T02:20:08;10.00;54.80
17399;DHT22;8817;48.170;8.592;2023-01-08T02:22:50;10.00;54.80
17399;DHT22;8817;48.170;8.592;2023-01-08T02:25:32;10.00;55.50
17399;DHT22;8817;48.170;8.592;2023-01-08T02:28:06;10.00;54.90
17399;DHT22;8817;48.170;8.592;2023-01-08T02:30:34;10.00;54.90
17399;DHT22;8817;48.170;8.592;2023-01-08T02:33:01;10.00;54.90
17399;DHT22;8817;48.170;8.592;2023-01-08T02:35:34;10.00;54.90
17399;DHT22;8817;48.170;8.592;2023-01-08T02:38:02;10.00;54.90
17399;DHT22;8817;48.170;8.592;2023-01-08T02:40:33;10.00;54.90
17399;DHT22;8817;48.170;8.592;2023-01-08T02:43:08;10.00;54.90
17399;DHT22;8817;48.170;8.592;2023-01-08T02:45:42;10.00;54.90
17399;DHT22;8817;48.170;8.592;2023-01-08T02:48:12;10.00;54.90
17399;DHT22;8817;48.170;8.592;2023-01-08T02:50:42;10.00;54.90
17399;DHT22;8817;48.170;8.592;2023-01-08T02:53:13;10.00;54.90
17399;DHT22;8817;48.170;8.592;2023-01-08T02:55:44;10.10;54.90
17399;DHT22;8817;48.170;8.592;2023-01-08T02:58:14;10.00;54.90
17399;DHT22;8817;48.170;8.592;2023-01-08T03:00:43;10.00;54.90
17399;DHT22;8817;48.170;8.592;2023-01-08T03:03:14;10.00;54.90
17399;DHT22;8817;48.170;8.592;2023-01-08T03:05:47;10.00;54.90
17399;DHT22;8817;48.170;8.592;2023-01-08T03:08:15;10.00;55.00
17399;DHT22;8817;48.170;8.592;2023-01-08T03:10:46;10.10;55.00
17399;DHT22;8817;48.170;8.592;2023-01-08T03:13:20;10.00;55.00
17399;DHT22;8817;48.170;8.592;2023-01-08T03:15:54;10.00;55.00
17399;DHT22;8817;48.170;8.592;2023-01-08T03:18:28;10.00;55.00
17399;DHT22;8817;48.170;8.592;2023-01-08T03:20:56;10.00;55.00
17399;DHT22;8817;48.170;8.592;2023-01-08T03:23:24;10.10;55.10
17399;DHT22;8817;48.170;8.592;2023-01-08T03:25:52;10.00;55.10
17399;DHT22;8817;48.170;8.592;2023-01-08T03:28:22;10.10;55.10
17399;DHT22;8817;48.170;8.592;2023-01-08T03:30:54;10.10;55.10
17399;DHT22;8817;48.170;8.592;2023-01-08T03:33:24;10.10;55.10
17399;DHT22;8817;48.170;8.592;2023-01-08T03:35:54;10.10;55.20
17399;DHT22;8817;48.170;8.592;2023-01-08T03:38:24;10.10;55.10
17399;DHT22;8817;48.170;8.592;2023-01-08T03:40:55;10.10;55.10
17399;DHT22;8817;48.170;8.592;2023-01-08T03:43:24;10.10;55.20
17399;DHT22;8817;48.170;8.592;2023-01-08T03:45:55;10.10;55.20
17399;DHT22;8817;48.170;8.592;2023-01-08T03:48:24;10.10;55.20
17399;DHT22;8817;48.170;8.592;2023-01-08T03:50:53;10.20;55.20
17399;DHT22;8817;48.170;8.592;2023-01-08T03:53:19;10.20;55.20
17399;DHT22;8817;48.170;8.592;2023-01-08T03:55:46;10.20;55.20
17399;DHT22;8817;48.170;8.592;2023-01-08T03:58:13;10.20;55.30
17399;DHT22;8817;48.170;8.592;2023-01-08T04:00:41;10.20;55.90
17399;DHT22;8817;48.170;8.592;2023-01-08T04:03:08;10.20;55.30
17399;DHT22;8817;48.170;8.592;2023-01-08T04:05:35;10.20;55.20
17399;DHT22;8817;48.170;8.592;2023-01-08T04:08:02;10.20;55.20
17399;DHT22;8817;48.170;8.592;2023-01-08T04:10:29;10.20;55.20
17399;DHT22;8817;48.170;8.592;2023-01-08T04:12:56;10.20;55.10
17399;DHT22;8817;48.170;8.592;2023-01-08T04:15:23;10.20;55.70
17399;DHT22;8817;48.170;8.592;2023-01-08T04:17:52;10.20;55.10
17399;DHT22;8817;48.170;8.592;2023-01-08T04:20:19;10.20;55.10
17399;DHT22;8817;48.170;8.592;2023-01-08T04:22:45;10.20;55.00
17399;DHT22;8817;48.170;8.592;2023-01-08T04:25:12;10.10;55.00
17399;DHT22;8817;48.170;8.592;2023-01-08T04:27:39;10.10;55.00
17399;DHT22;8817;48.170;8.592;2023-01-08T04:30:07;10.00;55.00
17399;DHT22;8817;48.170;8.592;2023-01-08T04:32:34;10.00;55.00
17399;DHT22;8817;48.170;8.592;2023-01-08T04:35:03;10.00;55.10
17399;DHT22;8817;48.170;8.592;2023-01-08T04:37:30;10.00;55.20
17399;DHT22;8817;48.170;8.592;2023-01-08T04:39:57;10.00;55.30
17399;DHT22;8817;48.170;8.592;2023-01-08T04:42:23;10.00;55.30
17399;DHT22;8817;48.170;8.592;2023-01-08T04:44:50;10.00;55.50
17399;DHT22;8817;48.170;8.592;2023-01-08T04:47:17;10.00;55.60
17399;DHT22;8817;48.170;8.592;2023-01-08T04:49:44;10.00;55.60
17399;DHT22;8817;48.170;8.592;2023-01-08T04:52:12;10.00;55.70
17399;DHT22;8817;48.170;8.592;2023-01-08T04:54:39;10.10;55.80
17399;DHT22;8817;48.170;8.592;2023-01-08T04:57:06;10.10;55.80
17399;DHT22;8817;48.170;8.592;2023-01-08T04:59:33;10.20;55.80
17399;DHT22;8817;48.170;8.592;2023-01-08T05:02:00;10.20;55.90
17399;DHT22;8817;48.170;8.592;2023-01-08T05:04:27;10.30;55.90
17399;DHT22;8817;48.170;8.592;2023-01-08T05:06:54;10.30;55.90
17399;DHT22;8817;48.170;8.592;2023-01-08T05:09:22;10.30;55.90
17399;DHT22;8817;48.170;8.592;2023-01-08T05:11:50;10.40;55.90
17399;DHT22;8817;48.170;8.592;2023-01-08T05:14:17;10.40;55.90
17399;DHT22;8817;48.170;8.592;2023-01-08T05:16:44;10.50;55.80
17399;DHT22;8817;48.170;8.592;2023-01-08T05:19:12;10.50;55.70
17399;DHT22;8817;48.170;8.592;2023-01-08T05:21:38;10.50;55.70
17399;DHT22;8817;48.170;8.592;2023-01-08T05:24:06;10.50;55.70
17399;DHT22;8817;48.170;8.592;2023-01-08T05:26:35;10.60;55.70
17399;DHT22;8817;48.170;8.592;2023-01-08T05:29:02;10.60;55.80
17399;DHT22;8817;48.170;8.592;2023-01-08T05:31:28;10.60;56.30
17399;DHT22;8817;48.170;8.592;2023-01-08T05:33:56;10.70;55.90
17399;DHT22;8817;48.170;8.592;2023-01-08T05:36:23;10.70;55.90
17399;DHT22;8817;48.170;8.592;2023-01-08T05:38:50;10.70;55.90
17399;DHT22;8817;48.170;8.592;2023-01-08T05:41:17;10.70;55.90
17399;DHT22;8817;48.170;8.592;2023-01-08T05:43:45;10.70;55.90
17399;DHT22;8817;48.170;8.592;2023-01-08T05:46:12;10.70;56.00
17399;DHT22;8817;48.170;8.592;2023-01-08T05:48:39;10.80;56.00
17399;DHT22;8817;48.170;8.592;2023-01-08T05:51:06;10.80;55.90
17399;DHT22;8817;48.170;8.592;2023-01-08T05:53:33;10.80;55.90
17399;DHT22;8817;48.170;8.592;2023-01-08T05:56:01;10.80;55.90
17399;DHT22;8817;48.170;8.592;2023-01-08T05:58:28;10.80;55.90
17399;DHT22;8817;48.170;8.592;2023-01-08T06:01:01;10.90;56.00
17399;DHT22;8817;48.170;8.592;2023-01-08T06:03:29;10.90;56.10
17399;DHT22;8817;48.170;8.592;2023-01-08T06:05:58;10.90;56.70
17399;DHT22;8817;48.170;8.592;2023-01-08T06:08:25;10.90;56.10
17399;DHT22;8817;48.170;8.592;2023-01-08T06:10:52;10.90;56.20
17399;DHT22;8817;48.170;8.592;2023-01-08T06:13:18;10.90;56.20
17399;DHT22;8817;48.170;8.592;2023-01-08T06:15:45;11.00;56.30
17399;DHT22;8817;48.170;8.592;2023-01-08T06:18:13;11.00;56.20
17399;DHT22;8817;48.170;8.592;2023-01-08T06:20:40;11.00;56.20
17399;DHT22;8817;48.170;8.592;2023-01-08T06:23:07;11.00;56.20
17399;DHT22;8817;48.170;8.592;2023-01-08T06:25:34;11.00;56.20
17399;DHT22;8817;48.170;8.592;2023-01-08T06:28:01;11.10;56.30
17399;DHT22;8817;48.170;8.592;2023-01-08T06:30:28;11.10;56.20
17399;DHT22;8817;48.170;8.592;2023-01-08T06:32:56;11.10;56.80
17399;DHT22;8817;48.170;8.592;2023-01-08T06:35:24;11.10;56.20
17399;DHT22;8817;48.170;8.592;2023-01-08T06:37:53;11.10;56.20
17399;DHT22;8817;48.170;8.592;2023-01-08T06:40:20;11.10;56.20
17399;DHT22;8817;48.170;8.592;2023-01-08T06:42:47;11.20;56.20
17399;DHT22;8817;48.170;8.592;2023-01-08T06:45:14;11.20;56.20
17399;DHT22;8817;48.170;8.592;2023-01-08T06:47:41;11.20;56.20
17399;DHT22;8817;48.170;8.592;2023-01-08T06:50:08;11.20;56.20
17399;DHT22;8817;48.170;8.592;2023-01-08T06:52:37;11.20;56.20
17399;DHT22;8817;48.170;8.592;2023-01-08T06:55:05;11.20;56.20
17399;DHT22;8817;48.170;8.592;2023-01-08T06:57:32;11.20;56.20
17399;DHT22;8817;48.170;8.592;2023-01-08T06:59:59;11.20;56.10
17399;DHT22;8817;48.170;8.592;2023-01-08T07:02:25;11.20;56.20
17399;DHT22;8817;48.170;8.592;2023-01-08T07:04:52;11.20;56.10
17399;DHT22;8817;48.170;8.592;2023-01-08T07:07:19;11.20;56.10
17399;DHT22;8817;48.170;8.592;2023-01-08T07:09:47;11.20;56.10
17399;DHT22;8817;48.170;8.592;2023-01-08T07:12:15;11.20;56.10
17399;DHT22;8817;48.170;8.592;2023-01-08T07:14:41;11.20;56.10
17399;DHT22;8817;48.170;8.592;2023-01-08T07:17:08;11.20;56.10
17399;DHT22;8817;48.170;8.592;2023-01-08T07:19:35;11.20;56.10
17399;DHT22;8817;48.170;8.592;2023-01-08T07:22:02;11.20;56.10
17399;DHT22;8817;48.170;8.592;2023-01-08T07:24:29;11.20;56.10
17399;DHT22;8817;48.170;8.592;2023-01-08T07:26:57;11.20;56.10
17399;DHT22;8817;48.170;8.592;2023-01-08T07:29:24;11.20;56.10
17399;DHT22;8817;48.170;8.592;2023-01-08T07:31:51;11.20;56.10
17399;DHT22;8817;48.170;8.592;2023-01-08T07:34:18;11.20;56.00
17399;DHT22;8817;48.170;8.592;2023-01-08T07:36:45;11.20;56.10
17399;DHT22;8817;48.170;8.592;2023-01-08T07:39:12;11.20;56.10
17399;DHT22;8817;48.170;8.592;2023-01-08T07:41:39;11.20;56.10
17399;DHT22;8817;48.170;8.592;2023-01-08T07:44:07;11.20;56.10
17399;DHT22;8817;48.170;8.592;2023-01-08T07:46:34;11.20;56.10
17399;DHT22;8817;48.170;8.592;2023-01-08T07:49:01;11.20;56.10
17399;DHT22;8817;48.170;8.592;2023-01-08T07:51:28;11.20;56.10
17399;DHT22;8817;48.170;8.592;2023-01-08T07:53:55;11.20;56.10
17399;DHT22;8817;48.170;8.592;2023-01-08T07:56:22;11.20;56.10
17399;DHT22;8817;48.170;8.592;2023-01-08T07:58:50;11.20;56.10
17399;DHT22;8817;48.170;8.592;2023-01-08T08:01:18;11.20;56.10
17399;DHT22;8817;48.170;8.592;2023-01-08T08:03:45;11.20;56.10
17399;DHT22;8817;48.170;8.592;2023-01-08T08:06:12;11.20;56.70
17399;DHT22;8817;48.170;8.592;2023-01-08T08:08:39;11.20;56.10
17399;DHT22;8817;48.170;8.592;2023-01-08T08:11:06;11.20;56.10
17399;DHT22;8817;48.170;8.592;2023-01-08T08:13:33;11.20;56.10
17399;DHT22;8817;48.170;8.592;2023-01-08T08:16:01;11.20;56.50
17399;DHT22;8817;48.170;8.592;2023-01-08T08:18:29;11.20;56.10
17399;DHT22;8817;48.170;8.592;2023-01-08T08:20:56;11.20;56.20
17399;DHT22;8817;48.170;8.592;2023-01-08T08:23:23;11.20;56.20
17399;DHT22;8817;48.170;8.592;2023-01-08T08:25:50;11.20;56.10
17399;DHT22;8817;48.170;8.592;2023-01-08T08:28:17;11.20;56.20
17399;DHT22;8817;48.170;8.592;2023-01-08T08:30:44;11.20;56.10
17399;DHT22;8817;48.170;8.592;2023-01-08T08:33:11;11.20;56.10
17399;DHT22;8817;48.170;8.592;2023-01-08T08:35:39;11.20;56.10
17399;DHT22;8817;48.170;8.592;2023-01-08T08:38:06;11.20;56.10
17399;DHT22;8817;48.170;8.592;2023-01-08T08:40:33;11.20;56.10
17399;DHT22;8817;48.170;8.592;2023-01-08T08:43:01;11.20;56.10
17399;DHT22;8817;48.170;8.592;2023-01-08T08:45:28;11.20;56.10
17399;DHT22;8817;48.170;8.592;2023-01-08T08:47:55;11.20;56.10
17399;DHT22;8817;48.170;8.592;2023-01-08T08:50:22;11.20;56.20
17399;DHT22;8817;48.170;8.592;2023-01-08T08:52:51;11.10;56.10
17399;DHT22;8817;48.170;8.592;2023-01-08T08:55:18;11.10;56.10
17399;DHT22;8817;48.170;8.592;2023-01-08T08:57:45;11.10;56.10
17399;DHT22;8817;48.170;8.592;2023-01-08T09:00:14;11.10;56.20
17399;DHT22;8817;48.170;8.592;2023-01-08T09:02:41;11.10;56.20
17399;DHT22;8817;48.170;8.592;2023-01-08T09:05:08;11.10;56.20
17399;DHT22;8817;48.170;8.592;2023-01-08T09:07:35;11.10;56.30
17399;DHT22;8817;48.170;8.592;2023-01-08T09:10:04;11.10;56.30
17399;DHT22;8817;48.170;8.592;2023-01-08T09:12:31;11.10;56.40
17399;DHT22;8817;48.170;8.592;2023-01-08T09:14:58;11.20;56.40
17399;DHT22;8817;48.170;8.592;2023-01-08T09:17:24;11.10;56.30
17399;DHT22;8817;48.170;8.592;2023-01-08T09:19:51;11.20;56.40
17399;DHT22;8817;48.170;8.592;2023-01-08T09:22:19;11.10;56.40
17399;DHT22;8817;48.170;8.592;2023-01-08T09:24:46;11.10;56.40
17399;DHT22;8817;48.170;8.592;2023-01-08T09:27:14;11.20;56.40
17399;DHT22;8817;48.170;8.592;2023-01-08T09:29:41;11.20;56.40
17399;DHT22;8817;48.170;8.592;2023-01-08T09:32:08;11.20;56.40
17399;DHT22;8817;48.170;8.592;2023-01-08T09:34:35;11.20;56.40
17399;DHT22;8817;48.170;8.592;2023-01-08T09:37:03;11.20;56.90
17399;DHT22;8817;48.170;8.592;2023-01-08T09:39:31;11.20;56.40
17399;DHT22;8817;48.170;8.592;2023-01-08T09:42:00;11.20;56.40
17399;DHT22;8817;48.170;8.592;2023-01-08T09:44:32;11.20;56.50
17399;DHT22;8817;48.170;8.592;2023-01-08T09:47:00;11.20;56.50
17399;DHT22;8817;48.170;8.592;2023-01-08T09:49:35;11.20;56.50
17399;DHT22;8817;48.170;8.592;2023-01-08T09:52:04;11.20;57.00
17399;DHT22;8817;48.170;8.592;2023-01-08T09:54:31;11.20;56.50
17399;DHT22;8817;48.170;8.592;2023-01-08T09:56:59;11.20;56.50
17399;DHT22;8817;48.170;8.592;2023-01-08T09:59:26;11.20;56.50
17399;DHT22;8817;48.170;8.592;2023-01-08T10:01:54;11.30;56.60
17399;DHT22;8817;48.170;8.592;2023-01-08T10:04:22;11.30;56.60
17399;DHT22;8817;48.170;8.592;2023-01-08T10:06:51;11.30;56.70
17399;DHT22;8817;48.170;8.592;2023-01-08T10:09:24;11.30;56.70
17399;DHT22;8817;48.170;8.592;2023-01-08T10:11:52;11.30;56.70
17399;DHT22;8817;48.170;8.592;2023-01-08T10:14:22;11.30;56.60
17399;DHT22;8817;48.170;8.592;2023-01-08T10:16:52;11.40;56.70
17399;DHT22;8817;48.170;8.592;2023-01-08T10:19:22;11.40;56.70
17399;DHT22;8817;48.170;8.592;2023-01-08T10:21:49;11.40;56.70
17399;DHT22;8817;48.170;8.592;2023-01-08T10:24:17;11.40;56.60
17399;DHT22;8817;48.170;8.592;2023-01-08T10:27:04;11.40;56.60
17399;DHT22;8817;48.170;8.592;2023-01-08T10:29:31;11.40;56.60
17399;DHT22;8817;48.170;8.592;2023-01-08T10:31:58;11.40;56.60
17399;DHT22;8817;48.170;8.592;2023-01-08T10:34:40;11.40;56.60
17399;DHT22;8817;48.170;8.592;2023-01-08T10:37:14;11.40;56.70
17399;DHT22;8817;48.170;8.592;2023-01-08T10:39:44;11.40;56.90
17399;DHT22;8817;48.170;8.592;2023-01-08T10:42:12;11.40;56.70
17399;DHT22;8817;48.170;8.592;2023-01-08T10:44:47;11.40;56.70
17399;DHT22;8817;48.170;8.592;2023-01-08T10:47:17;11.40;56.70
17399;DHT22;8817;48.170;8.592;2023-01-08T10:49:46;11.40;56.70
17399;DHT22;8817;48.170;8.592;2023-01-08T10:52:30;11.50;56.70
17399;DHT22;8817;48.170;8.592;2023-01-08T10:55:12;11.40;56.70
17399;DHT22;8817;48.170;8.592;2023-01-08T10:57:40;11.40;56.60
17399;DHT22;8817;48.170;8.592;2023-01-08T11:00:21;11.50;56.70
17399;DHT22;8817;48.170;8.592;2023-01-08T11:02:48;11.40;56.70
17399;DHT22;8817;48.170;8.592;2023-01-08T11:05:17;11.40;56.70
17399;DHT22;8817;48.170;8.592;2023-01-08T11:07:47;11.50;56.80
17399;DHT22;8817;48.170;8.592;2023-01-08T11:10:21;11.40;56.70
17399;DHT22;8817;48.170;8.592;2023-01-08T11:12:53;11.40;56.80
17399;DHT22;8817;48.170;8.592;2023-01-08T11:15:37;11.40;56.80
17399;DHT22;8817;48.170;8.592;2023-01-08T11:18:11;11.50;56.80
17399;DHT22;8817;48.170;8.592;2023-01-08T11:20:40;11.50;56.80
17399;DHT22;8817;48.170;8.592;2023-01-08T11:23:15;11.50;56.90
17399;DHT22;8817;48.170;8.592;2023-01-08T11:25:46;11.50;56.90
17399;DHT22;8817;48.170;8.592;2023-01-08T11:28:18;11.50;56.90
17399;DHT22;8817;48.170;8.592;2023-01-08T11:30:52;11.60;57.00
17399;DHT22;8817;48.170;8.592;2023-01-08T11:33:22;11.60;57.00
17399;DHT22;8817;48.170;8.592;2023-01-08T11:35:58;11.60;57.10
17399;DHT22;8817;48.170;8.592;2023-01-08T11:38:26;11.60;57.10
17399;DHT22;8817;48.170;8.592;2023-01-08T11:40:59;11.70;57.10
17399;DHT22;8817;48.170;8.592;2023-01-08T11:43:36;11.70;57.10
17399;DHT22;8817;48.170;8.592;2023-01-08T11:46:19;11.70;57.10
17399;DHT22;8817;48.170;8.592;2023-01-08T11:49:01;11.80;57.70
17399;DHT22;8817;48.170;8.592;2023-01-08T11:51:47;11.80;57.10
17399;DHT22;8817;48.170;8.592;2023-01-08T11:54:25;11.80;57.10
17399;DHT22;8817;48.170;8.592;2023-01-08T11:57:08;11.80;57.10
17399;DHT22;8817;48.170;8.592;2023-01-08T11:59:48;11.90;57.10
17399;DHT22;8817;48.170;8.592;2023-01-08T12:02:24;11.90;57.20
17399;DHT22;8817;48.170;8.592;2023-01-08T12:05:21;11.90;57.10
17399;DHT22;8817;48.170;8.592;2023-01-08T12:07:59;12.00;57.20
17399;DHT22;8817;48.170;8.592;2023-01-08T12:10:32;12.00;57.20
17399;DHT22;8817;48.170;8.592;2023-01-08T12:13:13;12.00;57.10
17399;DHT22;8817;48.170;8.592;2023-01-08T12:15:51;12.00;57.10
17399;DHT22;8817;48.170;8.592;2023-01-08T12:18:34;12.10;57.10
17399;DHT22;8817;48.170;8.592;2023-01-08T12:21:06;12.10;57.00
17399;DHT22;8817;48.170;8.592;2023-01-08T12:23:49;12.10;57.00
17399;DHT22;8817;48.170;8.592;2023-01-08T12:26:25;12.10;56.90
17399;DHT22;8817;48.170;8.592;2023-01-08T12:29:15;12.10;56.90
17399;DHT22;8817;48.170;8.592;2023-01-08T12:32:09;12.10;56.90
17399;DHT22;8817;48.170;8.592;2023-01-08T12:34:46;12.10;57.00
17399;DHT22;8817;48.170;8.592;2023-01-08T12:37:19;12.10;56.90
17399;DHT22;8817;48.170;8.592;2023-01-08T12:39:52;12.10;56.90
17399;DHT22;8817;48.170;8.592;2023-01-08T12:42:28;12.10;56.90
17399;DHT22;8817;48.170;8.592;2023-01-08T12:44:59;12.10;56.90
17399;DHT22;8817;48.170;8.592;2023-01-08T12:47:30;12.00;56.90
17399;DHT22;8817;48.170;8.592;2023-01-08T12:50:04;12.00;56.90
17399;DHT22;8817;48.170;8.592;2023-01-08T12:52:40;12.00;56.90
17399;DHT22;8817;48.170;8.592;2023-01-08T12:55:19;12.00;56.90
17399;DHT22;8817;48.170;8.592;2023-01-08T12:57:52;12.00;57.00
17399;DHT22;8817;48.170;8.592;2023-01-08T13:00:28;12.00;57.10
17399;DHT22;8817;48.170;8.592;2023-01-08T13:02:59;12.00;57.20
17399;DHT22;8817;48.170;8.592;2023-01-08T13:05:31;12.10;57.40
17399;DHT22;8817;48.170;8.592;2023-01-08T13:07:59;12.10;57.40
17399;DHT22;8817;48.170;8.592;2023-01-08T13:10:34;12.10;57.50
17399;DHT22;8817;48.170;8.592;2023-01-08T13:13:02;12.20;57.50
17399;DHT22;8817;48.170;8.592;2023-01-08T13:15:31;12.30;57.50
17399;DHT22;8817;48.170;8.592;2023-01-08T13:18:04;12.30;57.50
17399;DHT22;8817;48.170;8.592;2023-01-08T13:20:32;12.30;57.50
17399;DHT22;8817;48.170;8.592;2023-01-08T13:23:01;12.40;58.10
17399;DHT22;8817;48.170;8.592;2023-01-08T13:25:33;12.40;57.50
17399;DHT22;8817;48.170;8.592;2023-01-08T13:28:01;12.40;57.40
17399;DHT22;8817;48.170;8.592;2023-01-08T13:30:42;12.50;57.60
17399;DHT22;8817;48.170;8.592;2023-01-08T13:33:34;12.50;57.60
17399;DHT22;8817;48.170;8.592;2023-01-08T13:36:17;12.50;57.60
17399;DHT22;8817;48.170;8.592;2023-01-08T13:38:46;12.50;57.50
17399;DHT22;8817;48.170;8.592;2023-01-08T13:41:26;12.60;57.50
17399;DHT22;8817;48.170;8.592;2023-01-08T13:43:58;12.60;57.40
17399;DHT22;8817;48.170;8.592;2023-01-08T13:46:26;12.60;57.30
17399;DHT22;8817;48.170;8.592;2023-01-08T13:48:58;12.60;57.20
17399;DHT22;8817;48.170;8.592;2023-01-08T13:51:39;12.60;57.20
17399;DHT22;8817;48.170;8.592;2023-01-08T13:54:19;12.60;57.20
17399;DHT22;8817;48.170;8.592;2023-01-08T13:56:54;12.60;57.10
17399;DHT22;8817;48.170;8.592;2023-01-08T13:59:40;12.60;57.10
17399;DHT22;8817;48.170;8.592;2023-01-08T14:02:41;12.60;57.10
17399;DHT22;8817;48.170;8.592;2023-01-08T14:05:19;12.60;57.20
17399;DHT22;8817;48.170;8.592;2023-01-08T14:07:46;12.60;57.10
17399;DHT22;8817;48.170;8.592;2023-01-08T14:10:14;12.60;57.10
17399;DHT22;8817;48.170;8.592;2023-01-08T14:12:43;12.50;57.10
17399;DHT22;8817;48.170;8.592;2023-01-08T14:15:18;12.50;57.10
17399;DHT22;8817;48.170;8.592;2023-01-08T14:17:46;12.50;57.10
17399;DHT22;8817;48.170;8.592;2023-01-08T14:20:19;12.50;57.10
17399;DHT22;8817;48.170;8.592;2023-01-08T14:22:46;12.50;57.10
17399;DHT22;8817;48.170;8.592;2023-01-08T14:25:16;12.50;57.10
17399;DHT22;8817;48.170;8.592;2023-01-08T14:27:59;12.50;57.10
17399;DHT22;8817;48.170;8.592;2023-01-08T14:30:27;12.50;57.10
17399;DHT22;8817;48.170;8.592;2023-01-08T14:32:54;12.50;57.10
17399;DHT22;8817;48.170;8.592;2023-01-08T14:35:27;12.40;57.10
17399;DHT22;8817;48.170;8.592;2023-01-08T14:37:57;12.40;57.10
17399;DHT22;8817;48.170;8.592;2023-01-08T14:40:29;12.50;57.10
17399;DHT22;8817;48.170;8.592;2023-01-08T14:43:01;12.40;57.10
17399;DHT22;8817;48.170;8.592;2023-01-08T14:45:30;12.40;57.10
17399;DHT22;8817;48.170;8.592;2023-01-08T14:48:00;12.40;57.10
17399;DHT22;8817;48.170;8.592;2023-01-08T14:50:30;12.40;57.10
17399;DHT22;8817;48.170;8.592;2023-01-08T14:53:03;12.40;57.10
17399;DHT22;8817;48.170;8.592;2023-01-08T14:55:31;12.40;57.20
17399;DHT22;8817;48.170;8.592;2023-01-08T14:58:00;12.40;57.10
17399;DHT22;8817;48.170;8.592;2023-01-08T15:00:29;12.40;57.10
17399;DHT22;8817;48.170;8.592;2023-01-08T15:02:56;12.40;57.10
17399;DHT22;8817;48.170;8.592;2023-01-08T15:05:27;12.40;57.20
17399;DHT22;8817;48.170;8.592;2023-01-08T15:08:00;12.30;57.10
17399;DHT22;8817;48.170;8.592;2023-01-08T15:10:36;12.30;57.00
17399;DHT22;8817;48.170;8.592;2023-01-08T15:13:05;12.30;57.00
17399;DHT22;8817;48.170;8.592;2023-01-08T15:15:35;12.30;57.00
17399;DHT22;8817;48.170;8.592;2023-01-08T15:18:08;12.30;57.00
17399;DHT22;8817;48.170;8.592;2023-01-08T15:20:37;12.30;57.00
17399;DHT22;8817;48.170;8.592;2023-01-08T15:23:04;12.30;57.00
17399;DHT22;8817;48.170;8.592;2023-01-08T15:25:31;12.20;56.90
17399;DHT22;8817;48.170;8.592;2023-01-08T15:27:59;12.20;56.90
17399;DHT22;8817;48.170;8.592;2023-01-08T15:30:33;12.20;57.00
17399;DHT22;8817;48.170;8.592;2023-01-08T15:33:07;12.10;56.90
17399;DHT22;8817;48.170;8.592;2023-01-08T15:35:34;12.10;56.90
17399;DHT22;8817;48.170;8.592;2023-01-08T15:38:01;12.10;56.90
17399;DHT22;8817;48.170;8.592;2023-01-08T15:40:28;12.10;56.90
17399;DHT22;8817;48.170;8.592;2023-01-08T15:42:55;12.10;56.90
17399;DHT22;8817;48.170;8.592;2023-01-08T15:45:39;12.10;57.50
17399;DHT22;8817;48.170;8.592;2023-01-08T15:48:07;12.10;56.90
17399;DHT22;8817;48.170;8.592;2023-01-08T15:50:36;12.00;56.90
17399;DHT22;8817;48.170;8.592;2023-01-08T15:53:06;12.00;56.90
17399;DHT22;8817;48.170;8.592;2023-01-08T15:55:33;12.00;56.90
17399;DHT22;8817;48.170;8.592;2023-01-08T15:58:02;12.00;56.90
17399;DHT22;8817;48.170;8.592;2023-01-08T16:00:29;11.90;56.80
17399;DHT22;8817;48.170;8.592;2023-01-08T16:02:58;11.90;56.80
17399;DHT22;8817;48.170;8.592;2023-01-08T16:05:28;11.90;56.80